ANE25GH LEMD-LFBO
Flight info
| Callsign | ANE25GH |
|---|---|
| Flight time | 0h 45m |
| Altitude | 30000 |
| Route | PINAR N870 SEGRE N871 RONNY/N0377F280 N871 TOPTU |
| Aircraft | CRJX/M-SDFGIRWY/S |
Departure
| Time | 2026-05-06 05:09 |
|---|---|
| Airport | Adolfo Suárez Madrid–Barajas Airport (LEMD) |
Arrival
| Time | 2026-05-06 05:54 |
|---|---|
| Airport | Toulouse-Blagnac Airport (LFBO) |
| Time | Latitude | Longitude | Altitude | Speed | Heading |
|---|---|---|---|---|---|
| 2026-05-06 05:09 | 40.41430 | -3.19207 | 17448 ft | 304 kts | 35° |
| 2026-05-06 05:09 | 40.43040 | -3.17408 | 18009 ft | 308 kts | 35° |
| 2026-05-06 05:09 | 40.44687 | -3.15597 | 18624 ft | 309 kts | 34° |
| 2026-05-06 05:09 | 40.46377 | -3.13835 | 19107 ft | 312 kts | 32° |
| 2026-05-06 05:10 | 40.48104 | -3.12076 | 19591 ft | 315 kts | 32° |
| 2026-05-06 05:10 | 40.49837 | -3.10285 | 20073 ft | 318 kts | 33° |
| 2026-05-06 05:10 | 40.51586 | -3.08472 | 20540 ft | 322 kts | 32° |
| 2026-05-06 05:10 | 40.53354 | -3.06643 | 21017 ft | 325 kts | 32° |
| 2026-05-06 05:11 | 40.55140 | -3.04789 | 21444 ft | 329 kts | 32° |
| 2026-05-06 05:11 | 40.56942 | -3.02929 | 21827 ft | 334 kts | 32° |
| 2026-05-06 05:11 | 40.58784 | -3.01025 | 22252 ft | 338 kts | 32° |
| 2026-05-06 05:11 | 40.60643 | -2.99088 | 22695 ft | 341 kts | 32° |
| 2026-05-06 05:12 | 40.62513 | -2.97142 | 23128 ft | 344 kts | 32° |
| 2026-05-06 05:12 | 40.64399 | -2.95176 | 23543 ft | 347 kts | 32° |
| 2026-05-06 05:12 | 40.66300 | -2.93197 | 23903 ft | 350 kts | 32° |
| 2026-05-06 05:12 | 40.68221 | -2.91201 | 24275 ft | 352 kts | 32° |
| 2026-05-06 05:13 | 40.70147 | -2.89189 | 24650 ft | 355 kts | 32° |
| 2026-05-06 05:13 | 40.72063 | -2.87187 | 25027 ft | 356 kts | 32° |
| 2026-05-06 05:13 | 40.74016 | -2.85153 | 25373 ft | 359 kts | 32° |
| 2026-05-06 05:13 | 40.75982 | -2.83103 | 25723 ft | 361 kts | 32° |
| 2026-05-06 05:14 | 40.77966 | -2.81041 | 26064 ft | 363 kts | 32° |
| 2026-05-06 05:14 | 40.79959 | -2.78976 | 26405 ft | 365 kts | 32° |
| 2026-05-06 05:14 | 40.81966 | -2.76902 | 26723 ft | 367 kts | 32° |
| 2026-05-06 05:14 | 40.83986 | -2.74814 | 27035 ft | 370 kts | 32° |
| 2026-05-06 05:15 | 40.86017 | -2.72721 | 27367 ft | 371 kts | 31° |
| 2026-05-06 05:15 | 40.88064 | -2.70612 | 27707 ft | 373 kts | 32° |
| 2026-05-06 05:15 | 40.90108 | -2.68505 | 28072 ft | 373 kts | 31° |
| 2026-05-06 05:15 | 40.92145 | -2.66428 | 28330 ft | 376 kts | 30° |
| 2026-05-06 05:16 | 40.94323 | -2.64541 | 28536 ft | 370 kts | 16° |
| 2026-05-06 05:16 | 40.96735 | -2.63580 | 28826 ft | 357 kts | 1° |
| 2026-05-06 05:16 | 40.99188 | -2.63082 | 29100 ft | 354 kts | 355° |
| 2026-05-06 05:16 | 41.01628 | -2.63017 | 29365 ft | 351 kts | 351° |
| 2026-05-06 05:17 | 41.04082 | -2.62946 | 29641 ft | 352 kts | 351° |
| 2026-05-06 05:17 | 41.06541 | -2.62974 | 29876 ft | 355 kts | 350° |
| 2026-05-06 05:17 | 41.09006 | -2.62919 | 29964 ft | 367 kts | 357° |
| 2026-05-06 05:17 | 41.11554 | -2.62022 | 30023 ft | 393 kts | 19° |
| 2026-05-06 05:18 | 41.13923 | -2.60042 | 30059 ft | 408 kts | 27° |
| 2026-05-06 05:18 | 41.16449 | -2.58432 | 30051 ft | 399 kts | 7° |
| 2026-05-06 05:18 | 41.19133 | -2.57351 | 30058 ft | 414 kts | 18° |
| 2026-05-06 05:18 | 41.21608 | -2.55216 | 30064 ft | 435 kts | 38° |
| 2026-05-06 05:19 | 41.23569 | -2.52076 | 30070 ft | 451 kts | 57° |
| 2026-05-06 05:19 | 41.26416 | -2.44468 | 30068 ft | 465 kts | 57° |
| 2026-05-06 05:19 | 41.28266 | -2.40945 | 30054 ft | 467 kts | 46° |
| 2026-05-06 05:20 | 41.30483 | -2.37756 | 30043 ft | 470 kts | 40° |
| 2026-05-06 05:20 | 41.35145 | -2.31502 | 30056 ft | 483 kts | 42° |
| 2026-05-06 05:21 | 41.39714 | -2.24872 | 30037 ft | 494 kts | 43° |
| 2026-05-06 05:21 | 41.44398 | -2.18081 | 30028 ft | 500 kts | 43° |
| 2026-05-06 05:22 | 41.49099 | -2.11245 | 30029 ft | 500 kts | 44° |
| 2026-05-06 05:22 | 41.53802 | -2.04391 | 30021 ft | 500 kts | 43° |
| 2026-05-06 05:23 | 41.58509 | -1.97516 | 30026 ft | 501 kts | 44° |
| 2026-05-06 05:23 | 41.65551 | -1.87198 | 30026 ft | 502 kts | 44° |
| 2026-05-06 05:24 | 41.70216 | -1.80345 | 30005 ft | 502 kts | 44° |
| 2026-05-06 05:24 | 41.74920 | -1.73413 | 30013 ft | 502 kts | 44° |
| 2026-05-06 05:25 | 41.79627 | -1.66466 | 30004 ft | 503 kts | 44° |
| 2026-05-06 05:25 | 41.84324 | -1.59514 | 30011 ft | 503 kts | 44° |
| 2026-05-06 05:26 | 41.89016 | -1.52552 | 29997 ft | 502 kts | 44° |
| 2026-05-06 05:26 | 41.93675 | -1.45628 | 29988 ft | 503 kts | 44° |
| 2026-05-06 05:27 | 41.98362 | -1.38648 | 30029 ft | 503 kts | 44° |
| 2026-05-06 05:27 | 42.03054 | -1.31631 | 30009 ft | 504 kts | 44° |
| 2026-05-06 05:28 | 42.07734 | -1.24621 | 29994 ft | 504 kts | 44° |
| 2026-05-06 05:28 | 42.12654 | -1.17945 | 29995 ft | 499 kts | 35° |
| 2026-05-06 05:29 | 42.18114 | -1.12214 | 29993 ft | 497 kts | 33° |
| 2026-05-06 05:29 | 42.23499 | -1.06304 | 30006 ft | 500 kts | 35° |
| 2026-05-06 05:30 | 42.28841 | -1.00355 | 30003 ft | 500 kts | 35° |
| 2026-05-06 05:30 | 42.34227 | -0.94347 | 29998 ft | 501 kts | 35° |
| 2026-05-06 05:31 | 42.39607 | -0.88328 | 29997 ft | 501 kts | 35° |
| 2026-05-06 05:31 | 42.44695 | -0.81916 | 29994 ft | 508 kts | 47° |
| 2026-05-06 05:32 | 42.48871 | -0.74146 | 29997 ft | 510 kts | 52° |
| 2026-05-06 05:32 | 42.53134 | -0.66450 | 29983 ft | 509 kts | 48° |
| 2026-05-06 05:33 | 42.57504 | -0.58864 | 29983 ft | 510 kts | 49° |
| 2026-05-06 05:33 | 42.61840 | -0.51280 | 30021 ft | 511 kts | 49° |
| 2026-05-06 05:34 | 42.66166 | -0.43610 | 29995 ft | 511 kts | 49° |
| 2026-05-06 05:34 | 42.70484 | -0.35921 | 29979 ft | 511 kts | 49° |
| 2026-05-06 05:35 | 42.74800 | -0.28227 | 29990 ft | 511 kts | 49° |
| 2026-05-06 05:35 | 42.79097 | -0.20518 | 29960 ft | 510 kts | 50° |
| 2026-05-06 05:36 | 42.83331 | -0.12826 | 29991 ft | 510 kts | 50° |
| 2026-05-06 05:36 | 42.87577 | -0.05076 | 29992 ft | 510 kts | 50° |
| 2026-05-06 05:37 | 42.91859 | 0.02667 | 29982 ft | 512 kts | 50° |
| 2026-05-06 05:37 | 42.93991 | 0.06526 | 29450 ft | 507 kts | 50° |
| 2026-05-06 05:37 | 42.96093 | 0.10365 | 28943 ft | 501 kts | 50° |
| 2026-05-06 05:38 | 42.98162 | 0.14158 | 28450 ft | 494 kts | 50° |
| 2026-05-06 05:38 | 43.00171 | 0.17843 | 27895 ft | 486 kts | 50° |
| 2026-05-06 05:38 | 43.02182 | 0.21507 | 27331 ft | 478 kts | 50° |
| 2026-05-06 05:38 | 43.04153 | 0.25101 | 26845 ft | 467 kts | 50° |
| 2026-05-06 05:39 | 43.06080 | 0.28629 | 26317 ft | 459 kts | 51° |
| 2026-05-06 05:39 | 43.07967 | 0.32110 | 25791 ft | 452 kts | 51° |
| 2026-05-06 05:39 | 43.09827 | 0.35544 | 25264 ft | 445 kts | 51° |
| 2026-05-06 05:39 | 43.11663 | 0.38925 | 24737 ft | 438 kts | 50° |
| 2026-05-06 05:40 | 43.13476 | 0.42263 | 24047 ft | 432 kts | 50° |
| 2026-05-06 05:40 | 43.15257 | 0.45537 | 23374 ft | 423 kts | 50° |
| 2026-05-06 05:40 | 43.16999 | 0.48751 | 22408 ft | 417 kts | 50° |
| 2026-05-06 05:40 | 43.18717 | 0.51921 | 21416 ft | 412 kts | 50° |
| 2026-05-06 05:41 | 43.20411 | 0.55058 | 20480 ft | 406 kts | 51° |
| 2026-05-06 05:41 | 43.22090 | 0.58164 | 19564 ft | 401 kts | 51° |
| 2026-05-06 05:41 | 43.23718 | 0.61180 | 18712 ft | 397 kts | 51° |
| 2026-05-06 05:41 | 43.25350 | 0.64210 | 17845 ft | 392 kts | 51° |
| 2026-05-06 05:42 | 43.26958 | 0.67197 | 16935 ft | 387 kts | 51° |
| 2026-05-06 05:42 | 43.28547 | 0.70155 | 16111 ft | 383 kts | 51° |
| 2026-05-06 05:42 | 43.30093 | 0.73103 | 15409 ft | 380 kts | 56° |
| 2026-05-06 05:42 | 43.30998 | 0.76501 | 14680 ft | 382 kts | 79° |
| 2026-05-06 05:43 | 43.31148 | 0.80132 | 13978 ft | 381 kts | 91° |
| 2026-05-06 05:43 | 43.30985 | 0.83739 | 13278 ft | 377 kts | 94° |
| 2026-05-06 05:43 | 43.30753 | 0.87311 | 12579 ft | 372 kts | 95° |
| 2026-05-06 05:43 | 43.30533 | 0.90826 | 11937 ft | 369 kts | 94° |
| 2026-05-06 05:44 | 43.30362 | 0.94322 | 11627 ft | 365 kts | 93° |
| 2026-05-06 05:44 | 43.30231 | 0.97794 | 11307 ft | 363 kts | 92° |
| 2026-05-06 05:44 | 43.30096 | 1.01248 | 10985 ft | 360 kts | 93° |
| 2026-05-06 05:44 | 43.29964 | 1.04617 | 10399 ft | 356 kts | 93° |
| 2026-05-06 05:45 | 43.29828 | 1.07994 | 9782 ft | 352 kts | 93° |
| 2026-05-06 05:45 | 43.29693 | 1.11339 | 9081 ft | 349 kts | 93° |
| 2026-05-06 05:45 | 43.29560 | 1.14656 | 8362 ft | 347 kts | 93° |
| 2026-05-06 05:45 | 43.29485 | 1.17964 | 7625 ft | 346 kts | 85° |
| 2026-05-06 05:46 | 43.30170 | 1.21082 | 6930 ft | 340 kts | 62° |
| 2026-05-06 05:46 | 43.31305 | 1.23916 | 6237 ft | 337 kts | 57° |
| 2026-05-06 05:46 | 43.32541 | 1.26628 | 5567 ft | 333 kts | 54° |
| 2026-05-06 05:46 | 43.33892 | 1.29189 | 4881 ft | 329 kts | 50° |
| 2026-05-06 05:47 | 43.35261 | 1.31610 | 4638 ft | 311 kts | 50° |
| 2026-05-06 05:47 | 43.36548 | 1.33884 | 4528 ft | 293 kts | 49° |
| 2026-05-06 05:47 | 43.37772 | 1.36051 | 4501 ft | 281 kts | 49° |
| 2026-05-06 05:47 | 43.38948 | 1.38169 | 4046 ft | 283 kts | 50° |
| 2026-05-06 05:48 | 43.40128 | 1.40316 | 3672 ft | 279 kts | 49° |
| 2026-05-06 05:48 | 43.41278 | 1.42417 | 3503 ft | 268 kts | 49° |
| 2026-05-06 05:48 | 43.42002 | 1.43753 | 3443 ft | 259 kts | 50° |
| 2026-05-06 05:48 | 43.43416 | 1.46372 | 3391 ft | 249 kts | 49° |
| 2026-05-06 05:49 | 43.44088 | 1.47620 | 3380 ft | 240 kts | 49° |
| 2026-05-06 05:49 | 43.45062 | 1.49418 | 3368 ft | 229 kts | 49° |
| 2026-05-06 05:49 | 43.46187 | 1.50912 | 3337 ft | 222 kts | 19° |
| 2026-05-06 05:49 | 43.47631 | 1.51125 | 3365 ft | 205 kts | 341° |
| 2026-05-06 05:50 | 43.48975 | 1.50534 | 3379 ft | 201 kts | 330° |
| 2026-05-06 05:50 | 43.50154 | 1.49570 | 3394 ft | 192 kts | 317° |
| 2026-05-06 05:50 | 43.51165 | 1.48429 | 3264 ft | 185 kts | 315° |
| 2026-05-06 05:50 | 43.52145 | 1.47358 | 2972 ft | 175 kts | 317° |
| 2026-05-06 05:51 | 43.53089 | 1.46352 | 2717 ft | 168 kts | 317° |
| 2026-05-06 05:51 | 43.53989 | 1.45410 | 2474 ft | 161 kts | 318° |
| 2026-05-06 05:51 | 43.54872 | 1.44495 | 2255 ft | 156 kts | 318° |
| 2026-05-06 05:51 | 43.55701 | 1.43655 | 2128 ft | 141 kts | 317° |
| 2026-05-06 05:52 | 43.56463 | 1.42872 | 1872 ft | 132 kts | 317° |
| 2026-05-06 05:52 | 43.57175 | 1.42132 | 1646 ft | 124 kts | 316° |
| 2026-05-06 05:52 | 43.57830 | 1.41432 | 1437 ft | 116 kts | 317° |
| 2026-05-06 05:52 | 43.58505 | 1.40709 | 1217 ft | 131 kts | 320° |
| 2026-05-06 05:53 | 43.59266 | 1.39948 | 1119 ft | 140 kts | 321° |
| 2026-05-06 05:53 | 43.60058 | 1.39113 | 1000 ft | 148 kts | 320° |
| 2026-05-06 05:53 | 43.60884 | 1.38260 | 796 ft | 148 kts | 322° |
| 2026-05-06 05:53 | 43.61702 | 1.37425 | 598 ft | 143 kts | 319° |
| 2026-05-06 05:54 | 43.62466 | 1.36620 | 489 ft | 131 kts | 320° |
| 2026-05-06 05:54 | 43.63064 | 1.35994 | 490 ft | 82 kts | 323° |
| 2026-05-06 05:54 | 43.63391 | 1.35657 | 491 ft | 30 kts | 324° |
| 2026-05-06 05:54 | 43.63545 | 1.35518 | 487 ft | 23 kts | 348° |
| 2026-05-06 05:55 | 43.63650 | 1.35633 | 486 ft | 20 kts | 53° |
| 2026-05-06 05:55 | 43.63734 | 1.35788 | 495 ft | 20 kts | 52° |
| 2026-05-06 05:55 | 43.63806 | 1.35952 | 492 ft | 20 kts | 89° |
| 2026-05-06 05:55 | 43.63721 | 1.36089 | 484 ft | 20 kts | 142° |
| 2026-05-06 05:56 | 43.63611 | 1.36204 | 487 ft | 20 kts | 143° |
| 2026-05-06 05:56 | 43.63499 | 1.36320 | 485 ft | 20 kts | 143° |
| 2026-05-06 05:56 | 43.63384 | 1.36440 | 487 ft | 21 kts | 143° |
| 2026-05-06 05:56 | 43.63268 | 1.36559 | 493 ft | 21 kts | 143° |
| 2026-05-06 05:57 | 43.63149 | 1.36685 | 492 ft | 22 kts | 140° |
| 2026-05-06 05:57 | 43.63107 | 1.36864 | 489 ft | 20 kts | 113° |
| 2026-05-06 05:57 | 43.63036 | 1.37029 | 491 ft | 20 kts | 109° |
| 2026-05-06 05:57 | 43.62965 | 1.37186 | 486 ft | 20 kts | 142° |
| 2026-05-06 05:58 | 43.62854 | 1.37303 | 493 ft | 20 kts | 142° |
| 2026-05-06 05:58 | 43.62786 | 1.37418 | 491 ft | 14 kts | 102° |
| 2026-05-06 05:58 | 43.62801 | 1.37541 | 492 ft | 13 kts | 81° |
| 2026-05-06 05:58 | 43.62828 | 1.37619 | 483 ft | 0 kts | 52° |